Time;durP1;ratioP1;P1;durP2;ratioP2;P2;SDS_P1;SDS_P2;PMS_P1;PMS_P2;Temp;Humidity;BMP_temperature;BMP_pressure;BME280_temperature;BME280_humidity;BME280_pressure;Samples;Min_cycle;Max_cycle;Signal;HPM_P1;HPM_P2
2021/09/02 00:00:14;;;;;;;1.30;1.20;;;24.70;63.80;;;;;;5083601;28;20020;-36
2021/09/02 00:02:40;;;;;;;1.20;1.10;;;24.70;63.90;;;;;;5083572;28;20062;-36
2021/09/02 00:05:06;;;;;;;1.25;1.08;;;24.70;63.90;;;;;;5081731;28;20086;-36
2021/09/02 00:07:33;;;;;;;1.02;1.00;;;24.70;64.00;;;;;;5065311;28;20056;-36
2021/09/02 00:09:59;;;;;;;1.48;1.35;;;24.80;64.20;;;;;;5063343;28;20041;-36
2021/09/02 00:12:25;;;;;;;1.80;1.23;;;24.80;64.20;;;;;;5066228;28;20025;-36
2021/09/02 00:14:51;;;;;;;1.40;1.27;;;24.80;64.30;;;;;;5077119;28;20029;-36
2021/09/02 00:17:17;;;;;;;1.10;1.00;;;24.80;64.40;;;;;;5083314;28;20062;-36
2021/09/02 00:19:44;;;;;;;1.35;1.25;;;24.80;64.40;;;;;;5081412;28;20020;-36
2021/09/02 00:22:10;;;;;;;1.20;1.10;;;24.80;64.50;;;;;;5083349;28;20576;-36
2021/09/02 00:24:36;;;;;;;1.33;1.10;;;24.80;64.50;;;;;;5083216;28;20050;-36
2021/09/02 00:27:02;;;;;;;0.93;0.90;;;24.80;64.60;;;;;;5083141;28;20051;-36
2021/09/02 00:29:29;;;;;;;1.77;1.20;;;24.80;64.70;;;;;;5082964;28;20111;-36
2021/09/02 00:31:56;;;;;;;1.90;1.30;;;24.80;64.70;;;;;;5063984;28;20055;-36
2021/09/02 00:34:22;;;;;;;1.40;1.30;;;24.80;64.70;;;;;;5045007;28;20691;-37
2021/09/02 00:36:48;;;;;;;2.10;1.30;;;24.80;64.90;;;;;;5064261;28;20096;-36
2021/09/02 00:39:14;;;;;;;1.35;1.25;;;24.90;65.10;;;;;;5082898;28;20542;-36
2021/09/02 00:41:40;;;;;;;1.27;1.17;;;24.90;65.10;;;;;;5082873;28;20035;-36
2021/09/02 00:44:06;;;;;;;1.85;1.48;;;24.90;65.20;;;;;;5075474;28;20712;-36
2021/09/02 00:46:32;;;;;;;1.48;1.38;;;24.90;65.20;;;;;;5062627;28;20029;-36
2021/09/02 00:48:59;;;;;;;1.77;1.67;;;24.90;65.30;;;;;;5062552;28;20634;-36
2021/09/02 00:51:25;;;;;;;1.48;1.33;;;24.90;65.30;;;;;;5062700;28;20021;-36
2021/09/02 00:53:52;;;;;;;1.80;1.20;;;24.90;65.30;;;;;;5062813;28;20116;-36
2021/09/02 00:56:18;;;;;;;;;;;24.90;65.30;;;;;;5062988;28;20068;-36
2021/09/02 00:58:44;;;;;;;1.35;1.25;;;24.90;65.30;;;;;;5062526;28;19909;-36
2021/09/02 01:01:11;;;;;;;1.60;1.50;;;24.90;65.40;;;;;;5062487;28;20024;-36
2021/09/02 01:03:37;;;;;;;1.25;1.02;;;24.90;65.40;;;;;;5062455;28;20033;-37
2021/09/02 01:06:04;;;;;;;2.58;1.33;;;24.90;65.40;;;;;;5075459;28;20070;-36
2021/09/02 01:08:30;;;;;;;1.73;1.35;;;25.00;65.40;;;;;;5082339;28;20033;-36
2021/09/02 01:10:56;;;;;;;1.47;1.10;;;25.00;65.40;;;;;;5082796;28;20056;-36
2021/09/02 01:13:23;;;;;;;1.40;1.20;;;24.90;65.40;;;;;;5082373;28;20024;-36
2021/09/02 01:15:49;;;;;;;2.23;1.70;;;25.00;65.50;;;;;;5082395;28;20035;-36
2021/09/02 01:18:15;;;;;;;1.98;1.55;;;25.00;65.60;;;;;;5064433;28;20378;-37
2021/09/02 01:20:42;;;;;;;1.47;1.37;;;25.00;65.70;;;;;;5082115;28;20570;-36
2021/09/02 01:23:08;;;;;;;1.52;1.42;;;25.00;65.70;;;;;;5082101;28;20043;-36
2021/09/02 01:25:42;;;;;;;1.70;1.40;;;25.00;65.70;;;;;;5064109;28;20035;-36
2021/09/02 01:28:10;;;;;;;1.60;1.50;;;25.00;65.70;;;;;;5082325;28;20036;-36
2021/09/02 01:30:37;;;;;;;1.88;1.77;;;25.00;65.80;;;;;;5081918;28;20029;-36
2021/09/02 01:33:03;;;;;;;1.80;1.48;;;25.00;65.80;;;;;;5064380;28;20036;-36
2021/09/02 01:35:32;;;;;;;2.92;1.25;;;25.00;65.80;;;;;;5074225;28;20052;-37
2021/09/02 01:38:00;;;;;;;1.52;1.40;;;25.00;65.80;;;;;;5062304;28;20036;-36
2021/09/02 01:40:29;;;;;;;1.30;1.20;;;25.00;65.80;;;;;;5061994;28;20049;-36
2021/09/02 01:42:55;;;;;;;1.98;1.30;;;25.00;65.80;;;;;;5061915;28;20037;-36
2021/09/02 01:45:22;;;;;;;1.40;1.30;;;25.00;65.80;;;;;;5079920;28;20064;-36
2021/09/02 01:47:48;;;;;;;2.08;1.38;;;25.00;65.90;;;;;;5082424;28;20143;-37
2021/09/02 01:50:22;;;;;;;1.60;1.50;;;25.00;65.90;;;;;;5082059;28;20033;-36
2021/09/02 01:52:53;;;;;;;1.88;1.70;;;25.00;65.90;;;;;;5082266;28;20067;-36
2021/09/02 01:55:20;;;;;;;2.92;1.52;;;25.00;65.90;;;;;;5081738;28;20075;-36
2021/09/02 01:57:46;;;;;;;1.50;1.40;;;25.00;65.90;;;;;;5064101;28;20024;-36
2021/09/02 02:00:13;;;;;;;1.63;1.52;;;25.00;66.00;;;;;;5081865;28;20095;-37
2021/09/02 02:02:39;;;;;;;1.83;1.60;;;25.00;66.10;;;;;;5080107;28;20029;-36
2021/09/02 02:05:06;;;;;;;2.53;1.75;;;25.00;66.00;;;;;;5076904;28;20037;-36
2021/09/02 02:07:32;;;;;;;2.17;1.70;;;25.00;66.00;;;;;;5061720;28;20033;-36
2021/09/02 02:09:59;;;;;;;1.63;1.38;;;25.00;66.00;;;;;;5061819;28;20029;-36
2021/09/02 02:12:25;;;;;;;2.85;1.90;;;25.00;66.00;;;;;;5065066;28;20046;-36
2021/09/02 02:14:51;;;;;;;1.98;1.85;;;25.00;66.10;;;;;;5082115;28;20028;-36
2021/09/02 02:17:17;;;;;;;1.93;1.70;;;25.00;66.10;;;;;;5081821;28;20113;-37
2021/09/02 02:19:43;;;;;;;2.17;1.83;;;25.00;66.10;;;;;;5081827;28;20035;-36
2021/09/02 02:22:09;;;;;;;2.85;1.80;;;25.00;66.10;;;;;;5081929;28;20123;-36
2021/09/02 02:24:35;;;;;;;4.05;1.83;;;25.00;66.20;;;;;;5077932;28;20031;-36
2021/09/02 02:27:02;;;;;;;1.70;1.60;;;25.00;66.20;;;;;;5081706;28;20120;-37
2021/09/02 02:29:28;;;;;;;1.95;1.48;;;25.00;66.10;;;;;;5081862;28;20147;-36
2021/09/02 02:31:54;;;;;;;1.80;1.70;;;25.00;66.10;;;;;;5081576;28;20025;-36
2021/09/02 02:34:20;;;;;;;2.63;1.90;;;25.00;66.10;;;;;;5084763;28;20029;-36
2021/09/02 02:36:46;;;;;;;2.20;1.52;;;25.00;66.10;;;;;;5085217;28;20563;-36
2021/09/02 02:39:12;;;;;;;1.80;1.70;;;25.00;66.10;;;;;;5085370;28;20060;-36
2021/09/02 02:41:38;;;;;;;1.67;1.58;;;25.00;66.10;;;;;;5084617;28;20036;-36
2021/09/02 02:44:05;;;;;;;2.40;2.20;;;25.00;66.10;;;;;;5085060;28;20031;-36
2021/09/02 02:46:31;;;;;;;3.30;1.98;;;25.00;66.10;;;;;;5085012;28;20021;-36
2021/09/02 02:48:57;;;;;;;3.25;1.85;;;25.00;66.20;;;;;;5085011;28;20025;-36
2021/09/02 02:51:23;;;;;;;2.10;1.90;;;25.00;66.30;;;;;;5084861;28;20025;-36
2021/09/02 02:53:49;;;;;;;1.70;1.60;;;25.00;66.30;;;;;;5084815;28;20052;-36
2021/09/02 02:56:16;;;;;;;2.70;1.85;;;25.00;66.40;;;;;;5084746;28;20285;-36
2021/09/02 02:58:42;;;;;;;3.05;1.85;;;25.00;66.40;;;;;;5084874;28;20435;-36
2021/09/02 03:01:08;;;;;;;2.20;1.98;;;25.00;66.40;;;;;;5084362;28;20036;-36
2021/09/02 03:03:34;;;;;;;2.10;1.83;;;25.00;66.50;;;;;;5084732;28;20055;-40
2021/09/02 03:06:00;;;;;;;2.80;1.67;;;25.00;66.60;;;;;;5072024;28;20109;-36
2021/09/02 03:08:27;;;;;;;2.00;1.70;;;25.00;66.60;;;;;;5064582;28;20036;-36
2021/09/02 03:10:53;;;;;;;2.55;2.00;;;25.00;66.60;;;;;;5064372;28;20024;-36
2021/09/02 03:13:19;;;;;;;2.83;2.00;;;25.00;66.70;;;;;;5065658;28;20035;-36
2021/09/02 03:15:45;;;;;;;6.13;2.20;;;25.00;66.60;;;;;;5083684;28;20020;-37
2021/09/02 03:18:11;;;;;;;2.28;2.05;;;25.00;66.70;;;;;;5084691;28;20063;-36
2021/09/02 03:20:37;;;;;;;2.92;2.20;;;25.00;66.70;;;;;;5084250;28;20036;-36
2021/09/02 03:23:04;;;;;;;2.60;2.17;;;25.00;66.70;;;;;;5084234;28;20036;-36
2021/09/02 03:25:30;;;;;;;2.83;2.22;;;24.90;66.70;;;;;;5084341;28;20111;-36
2021/09/02 03:27:56;;;;;;;4.13;2.42;;;24.90;66.90;;;;;;5084243;28;20058;-37
2021/09/02 03:30:22;;;;;;;2.72;2.00;;;24.90;66.90;;;;;;5077930;28;20032;-36
2021/09/02 03:32:48;;;;;;;1.80;1.70;;;24.90;66.90;;;;;;5064039;28;20044;-36
2021/09/02 03:35:14;;;;;;;3.65;2.10;;;24.90;66.90;;;;;;5070286;28;20028;-37
2021/09/02 03:37:40;;;;;;;3.40;2.28;;;24.90;66.90;;;;;;5083984;28;20516;-36
2021/09/02 03:40:07;;;;;;;2.65;2.45;;;24.90;67.00;;;;;;5083970;28;20032;-37
2021/09/02 03:42:33;;;;;;;2.97;2.22;;;24.90;66.90;;;;;;5083748;28;20051;-37
2021/09/02 03:44:59;;;;;;;3.85;2.70;;;24.90;67.10;;;;;;5083390;28;20032;-36
2021/09/02 03:47:25;;;;;;;4.07;2.35;;;24.90;66.90;;;;;;5083801;28;20029;-36
2021/09/02 03:49:51;;;;;;;2.95;2.10;;;24.90;66.90;;;;;;5083813;28;20024;-37
2021/09/02 03:52:17;;;;;;;2.63;2.42;;;24.90;66.90;;;;;;5083660;28;20062;-37
2021/09/02 03:54:44;;;;;;;3.45;2.20;;;24.90;66.80;;;;;;5083617;28;20055;-36
2021/09/02 03:57:10;;;;;;;2.63;2.17;;;24.90;66.70;;;;;;5083559;28;20586;-36
2021/09/02 03:59:36;;;;;;;4.10;2.20;;;24.90;66.60;;;;;;5083670;28;20025;-36
2021/09/02 04:02:02;;;;;;;2.58;2.38;;;24.80;66.60;;;;;;5083214;28;20129;-36
2021/09/02 04:04:28;;;;;;;3.55;2.30;;;24.80;66.50;;;;;;5080383;28;20771;-37
2021/09/02 04:06:54;;;;;;;3.30;2.60;;;24.80;66.70;;;;;;5063663;28;20025;-36
2021/09/02 04:09:20;;;;;;;3.22;2.25;;;24.80;66.70;;;;;;5063497;28;20067;-36
2021/09/02 04:11:47;;;;;;;2.20;2.00;;;24.80;66.70;;;;;;5063074;28;20025;-36
2021/09/02 04:14:13;;;;;;;2.20;2.00;;;24.80;66.80;;;;;;5080192;28;20520;-36
2021/09/02 04:16:39;;;;;;;3.45;2.80;;;24.80;67.40;;;;;;5081554;28;20088;-37
2021/09/02 04:19:05;;;;;;;2.55;2.30;;;24.80;66.70;;;;;;5083247;28;20634;-36
2021/09/02 04:21:31;;;;;;;2.45;2.25;;;24.80;66.80;;;;;;5082890;28;20054;-37
2021/09/02 04:23:57;;;;;;;2.58;2.38;;;24.80;66.80;;;;;;5083371;28;20028;-37
2021/09/02 04:26:23;;;;;;;2.58;2.38;;;24.80;66.80;;;;;;5082844;28;20087;-36
2021/09/02 04:28:49;;;;;;;3.67;2.30;;;24.80;67.10;;;;;;5083161;28;20021;-37
2021/09/02 04:31:16;;;;;;;3.38;2.20;;;24.80;66.80;;;;;;5069250;28;20025;-36
2021/09/02 04:33:42;;;;;;;2.65;2.35;;;24.80;66.80;;;;;;5063042;28;20769;-36
2021/09/02 04:36:08;;;;;;;3.03;2.28;;;24.80;66.60;;;;;;5076682;28;20033;-36
2021/09/02 04:38:34;;;;;;;3.38;2.47;;;24.80;66.60;;;;;;5082876;28;20031;-36
2021/09/02 04:41:00;;;;;;;3.25;2.33;;;24.80;66.50;;;;;;5070534;28;20039;-37
2021/09/02 04:43:26;;;;;;;2.67;2.22;;;24.80;66.50;;;;;;5061890;28;20087;-36
2021/09/02 04:45:52;;;;;;;3.97;2.53;;;24.70;66.40;;;;;;5062793;28;20056;-36
2021/09/02 04:48:20;;;;;;;2.30;1.80;;;24.70;66.40;;;;;;5062765;28;20033;-36
2021/09/02 04:50:49;;;;;;;2.97;2.15;;;24.70;66.50;;;;;;5062672;28;20032;-37
2021/09/02 04:53:16;;;;;;;3.13;2.58;;;24.70;66.50;;;;;;5062590;28;20082;-36
2021/09/02 04:55:42;;;;;;;3.42;2.10;;;24.70;66.50;;;;;;5040521;28;20065;-36
2021/09/02 04:58:09;;;;;;;2.40;2.20;;;24.70;66.50;;;;;;5061974;28;20030;-36
2021/09/02 05:00:35;;;;;;;;;;;24.70;66.60;;;;;;5063042;28;20036;-36
2021/09/02 05:03:01;;;;;;;3.10;2.38;;;24.70;66.50;;;;;;5062261;28;19925;-36
2021/09/02 05:05:27;;;;;;;3.42;2.25;;;24.70;66.60;;;;;;5052661;28;20020;-36
2021/09/02 05:07:54;;;;;;;3.08;2.33;;;24.60;66.50;;;;;;5082707;28;20028;-36
2021/09/02 05:10:21;;;;;;;3.22;2.30;;;24.60;66.40;;;;;;5076302;28;20700;-36
2021/09/02 05:12:47;;;;;;;2.33;2.13;;;24.60;66.40;;;;;;5062172;28;20037;-37
2021/09/02 05:15:13;;;;;;;3.47;2.47;;;24.60;66.40;;;;;;5062472;28;20024;-36
2021/09/02 05:17:39;;;;;;;2.35;2.15;;;24.60;66.40;;;;;;5062356;28;20518;-36
2021/09/02 05:20:06;;;;;;;2.58;2.35;;;24.60;66.50;;;;;;5062575;28;20040;-37
2021/09/02 05:22:32;;;;;;;2.58;2.17;;;24.60;66.40;;;;;;5062174;28;20041;-36
2021/09/02 05:24:58;;;;;;;2.10;1.90;;;24.60;66.50;;;;;;5062087;28;20025;-36
2021/09/02 05:27:25;;;;;;;3.00;2.72;;;24.60;66.50;;;;;;5062224;28;20021;-36
2021/09/02 05:29:51;;;;;;;2.47;2.10;;;24.60;66.40;;;;;;5063851;28;20025;-36
2021/09/02 05:32:17;;;;;;;2.20;2.00;;;24.60;66.50;;;;;;5082199;28;20544;-36
2021/09/02 05:34:43;;;;;;;2.55;2.35;;;24.60;66.60;;;;;;5082213;28;20032;-36
2021/09/02 05:37:10;;;;;;;2.63;2.35;;;24.50;66.50;;;;;;5082406;28;20086;-36
2021/09/02 05:39:36;;;;;;;2.78;2.22;;;24.60;66.50;;;;;;5082405;28;20025;-36
2021/09/02 05:42:02;;;;;;;3.20;2.40;;;24.50;66.50;;;;;;5062248;28;20040;-36
2021/09/02 05:44:30;;;;;;;2.47;2.23;;;24.50;66.50;;;;;;5061995;28;20069;-36
2021/09/02 05:46:56;;;;;;;2.25;2.03;;;24.50;66.50;;;;;;5062353;28;20268;-36
2021/09/02 05:49:22;;;;;;;2.93;2.30;;;24.50;66.50;;;;;;5062188;28;20367;-36
2021/09/02 05:51:49;;;;;;;2.63;2.42;;;24.50;66.60;;;;;;5062169;28;20312;-36
2021/09/02 05:54:15;;;;;;;2.22;2.03;;;24.50;66.60;;;;;;5043608;28;20502;-36
2021/09/02 05:56:41;;;;;;;3.93;2.50;;;24.50;66.60;;;;;;5062156;28;20040;-36
2021/09/02 05:59:07;;;;;;;4.82;2.60;;;24.50;66.70;;;;;;5070685;28;20100;-36
2021/09/02 06:01:34;;;;;;;2.97;2.30;;;24.50;66.60;;;;;;5070096;28;20033;-36
2021/09/02 06:04:00;;;;;;;3.20;2.30;;;24.50;66.60;;;;;;5061923;28;20131;-36
2021/09/02 06:06:26;;;;;;;2.38;2.17;;;24.50;66.70;;;;;;5078303;28;20029;-36
2021/09/02 06:08:53;;;;;;;2.63;2.25;;;24.50;66.70;;;;;;5084472;28;20028;-38
2021/09/02 06:11:19;;;;;;;2.42;2.22;;;24.40;66.60;;;;;;5071706;28;20413;-36
2021/09/02 06:13:45;;;;;;;3.22;2.35;;;24.40;66.70;;;;;;5065454;28;20040;-36
2021/09/02 06:16:11;;;;;;;2.50;2.30;;;24.40;66.70;;;;;;5078908;28;20043;-36
2021/09/02 06:18:37;;;;;;;2.45;2.10;;;24.40;66.70;;;;;;5065569;28;20044;-36
2021/09/02 06:21:03;;;;;;;3.55;2.13;;;24.40;66.70;;;;;;5065634;28;20807;-37
2021/09/02 06:23:29;;;;;;;3.60;2.38;;;24.40;66.70;;;;;;5065146;28;20044;-36
2021/09/02 06:25:56;;;;;;;3.65;2.30;;;24.40;66.70;;;;;;5065338;28;20025;-36
2021/09/02 06:28:22;;;;;;;2.43;2.23;;;24.40;66.80;;;;;;5065421;28;20032;-36
2021/09/02 06:30:48;;;;;;;2.90;2.17;;;24.40;66.80;;;;;;5075189;28;20028;-36
2021/09/02 06:33:14;;;;;;;2.40;2.20;;;24.40;66.80;;;;;;5085354;28;20084;-37
2021/09/02 06:35:40;;;;;;;3.43;2.23;;;24.30;66.80;;;;;;5085458;28;20038;-36
2021/09/02 06:38:07;;;;;;;3.17;2.58;;;24.30;66.80;;;;;;5085383;28;20094;-36
2021/09/02 06:40:33;;;;;;;2.50;2.30;;;24.30;66.90;;;;;;5085177;28;20140;-37
2021/09/02 06:42:59;;;;;;;2.60;2.40;;;24.30;66.80;;;;;;5067090;28;20041;-37
2021/09/02 06:45:25;;;;;;;2.77;2.20;;;24.30;66.80;;;;;;5067397;28;20033;-36
2021/09/02 06:47:52;;;;;;;2.15;2.00;;;24.30;66.80;;;;;;5085316;28;20301;-37
2021/09/02 06:50:18;;;;;;;2.40;2.20;;;24.30;66.90;;;;;;5085160;28;20038;-37
2021/09/02 06:52:44;;;;;;;2.50;2.30;;;24.30;66.90;;;;;;5085148;28;20029;-37
2021/09/02 06:55:11;;;;;;;2.50;2.30;;;24.30;66.90;;;;;;5084665;28;20650;-37
2021/09/02 06:57:37;;;;;;;2.30;2.10;;;24.30;66.90;;;;;;5084922;28;20281;-36
2021/09/02 07:00:04;;;;;;;2.33;2.05;;;24.30;67.00;;;;;;5085080;28;20036;-36
2021/09/02 07:02:30;;;;;;;4.55;2.53;;;24.30;67.00;;;;;;5084855;28;20033;-36
2021/09/02 07:04:56;;;;;;;2.88;1.98;;;24.30;67.00;;;;;;5081224;28;20032;-36
2021/09/02 07:07:22;;;;;;;2.38;2.17;;;24.20;67.00;;;;;;5064747;28;20028;-37
2021/09/02 07:09:49;;;;;;;2.45;2.25;;;24.20;67.00;;;;;;5066287;28;20029;-36
2021/09/02 07:12:15;;;;;;;2.60;2.40;;;24.20;67.00;;;;;;5084834;28;20029;-36
2021/09/02 07:14:41;;;;;;;2.60;2.30;;;24.20;67.00;;;;;;5084531;28;20037;-36
2021/09/02 07:17:07;;;;;;;3.03;2.50;;;24.20;67.10;;;;;;5084892;28;20489;-36
2021/09/02 07:19:33;;;;;;;2.55;2.20;;;24.20;67.10;;;;;;5083638;28;20060;-36
2021/09/02 07:21:59;;;;;;;2.67;2.25;;;24.20;67.10;;;;;;5084634;28;20041;-37
2021/09/02 07:24:26;;;;;;;2.33;2.10;;;24.20;67.10;;;;;;5084325;28;20489;-36
2021/09/02 07:26:52;;;;;;;2.47;2.28;;;24.20;67.10;;;;;;5084497;28;20029;-36
2021/09/02 07:29:18;;;;;;;2.28;2.00;;;24.20;67.10;;;;;;5084450;28;20117;-36
2021/09/02 07:31:44;;;;;;;2.45;2.20;;;24.20;67.20;;;;;;5067008;28;20025;-36
2021/09/02 07:34:10;;;;;;;4.03;2.38;;;24.20;67.20;;;;;;5064279;28;20029;-37
2021/09/02 07:36:37;;;;;;;2.22;2.03;;;24.10;67.10;;;;;;5081792;28;20036;-36
2021/09/02 07:39:04;;;;;;;3.00;2.28;;;24.10;67.10;;;;;;5084414;28;20055;-36
2021/09/02 07:41:30;;;;;;;2.53;2.33;;;24.10;67.20;;;;;;5084100;28;20504;-36
2021/09/02 07:43:56;;;;;;;2.55;2.30;;;24.10;67.20;;;;;;5083936;28;20056;-36
2021/09/02 07:46:22;;;;;;;2.72;2.28;;;24.10;67.20;;;;;;5084156;28;20025;-37
2021/09/02 07:48:48;;;;;;;2.65;2.20;;;24.10;67.20;;;;;;5084189;28;20055;-37
2021/09/02 07:51:15;;;;;;;3.00;2.30;;;24.10;67.30;;;;;;5064690;28;20099;-36
2021/09/02 07:53:41;;;;;;;3.20;2.08;;;24.10;67.30;;;;;;5065945;28;20054;-36
2021/09/02 07:56:07;;;;;;;3.33;2.35;;;24.10;67.30;;;;;;5083690;28;20044;-36
2021/09/02 07:58:33;;;;;;;2.40;2.20;;;24.10;67.30;;;;;;5083774;28;20040;-36
2021/09/02 08:01:00;;;;;;;3.78;2.40;;;24.10;67.40;;;;;;5083972;28;20024;-36
2021/09/02 08:03:26;;;;;;;3.25;2.17;;;24.10;67.40;;;;;;5083832;28;20058;-36
2021/09/02 08:05:53;;;;;;;2.45;2.13;;;24.10;67.40;;;;;;5072173;28;20029;-36
2021/09/02 08:08:19;;;;;;;;;;;24.10;67.40;;;;;;5082072;28;20024;-36
2021/09/02 08:10:46;;;;;;;2.40;2.20;;;24.10;67.40;;;;;;5080375;28;19962;-36
2021/09/02 08:13:12;;;;;;;2.38;2.17;;;24.00;67.40;;;;;;5079711;28;20028;-36
2021/09/02 08:15:39;;;;;;;3.67;2.45;;;24.00;67.40;;;;;;5083397;28;20032;-36
2021/09/02 08:18:05;;;;;;;5.10;2.15;;;24.00;67.40;;;;;;5083559;28;20754;-36
2021/09/02 08:20:32;;;;;;;4.20;2.35;;;24.00;67.50;;;;;;5083422;28;20096;-36
2021/09/02 08:22:58;;;;;;;2.20;1.90;;;24.00;67.50;;;;;;5065441;28;20056;-37
2021/09/02 08:25:24;;;;;;;2.72;2.53;;;24.00;67.50;;;;;;5083336;28;20753;-36
2021/09/02 08:27:50;;;;;;;2.42;2.22;;;24.00;67.50;;;;;;5083352;28;20519;-36
2021/09/02 08:30:18;;;;;;;2.65;2.10;;;24.00;67.50;;;;;;5083206;28;20028;-37
2021/09/02 08:32:48;;;;;;;2.40;2.20;;;24.00;67.50;;;;;;5048912;28;20041;-36
2021/09/02 08:35:20;;;;;;;2.30;2.08;;;24.00;67.60;;;;;;5083061;28;20106;-37
2021/09/02 08:37:47;;;;;;;2.20;2.00;;;24.00;67.60;;;;;;5065596;28;20043;-37
2021/09/02 08:40:16;;;;;;;2.00;1.85;;;24.00;67.60;;;;;;5083212;28;20033;-36
2021/09/02 08:42:42;;;;;;;2.30;2.10;;;24.00;68.40;;;;;;5082957;28;20067;-36
2021/09/02 08:45:09;;;;;;;2.53;2.15;;;24.00;67.70;;;;;;5048435;28;20028;-36
2021/09/02 08:47:37;;;;;;;3.33;2.20;;;23.90;67.60;;;;;;5082888;28;20036;-37
2021/09/02 08:50:04;;;;;;;2.45;2.03;;;23.90;67.60;;;;;;5083116;28;20080;-37
2021/09/02 08:52:30;;;;;;;2.17;1.90;;;23.90;67.70;;;;;;5082997;28;20032;-36
2021/09/02 08:54:57;;;;;;;2.40;2.20;;;23.90;67.70;;;;;;5082621;28;20044;-36
2021/09/02 08:57:23;;;;;;;2.30;2.10;;;23.90;67.70;;;;;;5082955;28;20055;-36
2021/09/02 08:59:49;;;;;;;2.30;1.90;;;23.90;67.70;;;;;;5082957;28;20054;-36
2021/09/02 09:02:29;;;;;;;3.15;2.40;;;23.90;67.70;;;;;;5070918;28;20282;-36
2021/09/02 09:05:06;;;;;;;2.35;2.13;;;23.90;67.80;;;;;;5066068;28;20028;-36
2021/09/02 09:07:36;;;;;;;;;;;23.90;67.80;;;;;;5083475;28;20032;-38
2021/09/02 09:10:03;;;;;;;2.30;2.10;;;23.90;67.80;;;;;;5079613;28;20540;-36
2021/09/02 09:12:34;;;;;;;2.42;2.22;;;23.90;67.90;;;;;;5062716;28;20719;-36
2021/09/02 09:15:00;;;;;;;2.80;1.95;;;23.90;67.90;;;;;;5062369;28;20428;-36
2021/09/02 09:17:26;;;;;;;2.10;1.90;;;23.90;67.90;;;;;;5062582;28;20033;-37
2021/09/02 09:19:53;;;;;;;2.03;1.83;;;23.80;67.90;;;;;;5062749;28;20021;-36
2021/09/02 09:22:23;;;;;;;2.63;2.05;;;23.80;67.90;;;;;;5062665;28;20310;-36
2021/09/02 09:24:56;;;;;;;4.18;1.90;;;23.80;67.90;;;;;;5062607;28;20125;-36
2021/09/02 09:27:40;;;;;;;2.92;2.20;;;23.80;68.00;;;;;;5062058;28;20025;-36
2021/09/02 09:30:06;;;;;;;2.22;1.92;;;23.80;68.00;;;;;;5044960;28;20052;-36
2021/09/02 09:32:49;;;;;;;2.75;1.95;;;23.80;68.10;;;;;;5062491;28;20584;-36
2021/09/02 09:35:18;;;;;;;2.95;1.98;;;23.80;68.10;;;;;;5068800;28;20029;-36
2021/09/02 09:37:44;;;;;;;2.83;2.08;;;23.80;68.10;;;;;;5082235;28;20032;-36
2021/09/02 09:40:11;;;;;;;2.35;2.10;;;23.80;68.20;;;;;;5064613;28;20024;-36
2021/09/02 09:42:37;;;;;;;2.20;2.00;;;23.80;68.10;;;;;;5082985;28;20025;-36
2021/09/02 09:45:07;;;;;;;2.17;1.98;;;23.80;68.20;;;;;;5086750;28;20055;-37
2021/09/02 09:47:34;;;;;;;2.65;2.42;;;23.80;68.20;;;;;;5086217;28;20127;-39
2021/09/02 09:50:02;;;;;;;5.32;2.30;;;23.70;68.10;;;;;;5086719;28;20631;-36
2021/09/02 09:52:31;;;;;;;2.30;2.10;;;23.70;68.20;;;;;;5086419;28;20024;-36
2021/09/02 09:55:11;;;;;;;3.25;2.10;;;23.70;68.20;;;;;;5086188;28;20109;-36
2021/09/02 09:57:39;;;;;;;2.30;2.00;;;23.70;68.90;;;;;;5085951;28;20027;-36
2021/09/02 10:00:07;;;;;;;2.20;2.00;;;23.70;68.30;;;;;;5081956;28;20060;-36
2021/09/02 10:02:36;;;;;;;3.05;1.90;;;23.70;68.30;;;;;;5080280;28;20043;-36
2021/09/02 10:05:04;;;;;;;2.15;1.95;;;23.70;68.30;;;;;;5083121;28;20048;-36
2021/09/02 10:07:30;;;;;;;2.30;2.10;;;23.70;68.40;;;;;;5068605;28;20025;-36
2021/09/02 10:09:56;;;;;;;2.22;1.90;;;23.70;68.40;;;;;;5065711;28;20035;-36
2021/09/02 10:12:22;;;;;;;2.22;2.03;;;23.70;68.40;;;;;;5065822;28;20088;-36
2021/09/02 10:14:49;;;;;;;2.38;2.17;;;23.70;68.40;;;;;;5031889;28;20113;-36
2021/09/02 10:17:15;;;;;;;;;;;23.70;68.50;;;;;;5048424;28;20057;-37
2021/09/02 10:19:41;;;;;;;2.53;1.95;;;23.70;68.40;;;;;;5065971;28;19916;-37
2021/09/02 10:22:08;;;;;;;2.80;2.00;;;23.70;68.50;;;;;;5031645;28;20029;-36
2021/09/02 10:24:39;;;;;;;2.17;2.00;;;23.70;68.50;;;;;;5065883;28;20037;-36
2021/09/02 10:27:17;;;;;;;2.42;1.92;;;23.70;68.60;;;;;;5065443;28;20044;-37
2021/09/02 10:29:44;;;;;;;2.10;2.00;;;23.60;68.40;;;;;;5065630;28;20025;-36
2021/09/02 10:32:28;;;;;;;2.20;2.00;;;23.60;68.40;;;;;;5065492;28;20486;-36
2021/09/02 10:35:08;;;;;;;2.30;2.00;;;23.60;68.50;;;;;;5069280;28;20040;-36
2021/09/02 10:37:34;;;;;;;2.10;1.90;;;23.60;68.60;;;;;;5085279;28;20054;-36
2021/09/02 10:40:04;;;;;;;2.25;1.95;;;23.60;68.50;;;;;;5085477;28;20025;-37
2021/09/02 10:42:51;;;;;;;2.20;2.00;;;23.60;68.60;;;;;;5085352;28;20041;-36
2021/09/02 10:45:27;;;;;;;1.80;1.70;;;23.60;68.60;;;;;;5085321;28;20031;-37
2021/09/02 10:47:54;;;;;;;2.13;1.90;;;23.60;68.70;;;;;;5085466;28;20043;-36
2021/09/02 10:50:27;;;;;;;;;;;23.60;68.70;;;;;;5085854;28;20028;-36
2021/09/02 10:52:54;;;;;;;2.03;1.92;;;23.60;68.70;;;;;;5085589;28;19985;-37
2021/09/02 10:55:33;;;;;;;3.60;1.87;;;23.60;68.80;;;;;;5085198;28;20060;-36
2021/09/02 10:58:03;;;;;;;1.90;1.80;;;23.60;68.80;;;;;;5084952;28;20025;-37
2021/09/02 11:00:37;;;;;;;2.17;2.00;;;23.60;68.80;;;;;;5085144;28;20066;-37
2021/09/02 11:03:19;;;;;;;1.88;1.75;;;23.60;68.80;;;;;;5066893;28;20044;-36
2021/09/02 11:05:53;;;;;;;1.90;1.70;;;23.60;68.90;;;;;;5075505;28;20039;-36
2021/09/02 11:08:36;;;;;;;2.05;1.85;;;23.60;68.80;;;;;;5084936;28;20604;-36
2021/09/02 11:11:16;;;;;;;2.13;1.92;;;23.60;68.90;;;;;;5085077;28;20031;-36
2021/09/02 11:13:44;;;;;;;1.90;1.80;;;23.50;68.80;;;;;;5084890;28;20055;-36
2021/09/02 11:16:15;;;;;;;1.95;1.85;;;23.50;68.80;;;;;;5084925;28;20037;-37
2021/09/02 11:18:48;;;;;;;2.80;1.83;;;23.50;68.80;;;;;;5084968;28;20076;-36
2021/09/02 11:21:17;;;;;;;2.20;1.90;;;23.50;69.60;;;;;;5084747;28;20025;-36
2021/09/02 11:23:47;;;;;;;2.00;1.80;;;23.50;68.90;;;;;;5084679;28;20057;-36
2021/09/02 11:26:33;;;;;;;1.75;1.65;;;23.50;69.00;;;;;;5084475;28;20029;-36
2021/09/02 11:29:00;;;;;;;3.95;1.92;;;23.50;69.10;;;;;;5069001;28;20040;-37
2021/09/02 11:31:27;;;;;;;3.17;1.77;;;23.50;69.00;;;;;;5084683;28;20032;-37
2021/09/02 11:33:53;;;;;;;2.15;1.90;;;23.50;69.00;;;;;;5066931;28;20048;-36
2021/09/02 11:36:20;;;;;;;2.50;1.90;;;23.50;69.10;;;;;;5084523;28;20081;-36
2021/09/02 11:38:47;;;;;;;2.47;1.80;;;23.50;69.10;;;;;;5084162;28;20120;-36
2021/09/02 11:41:19;;;;;;;2.33;1.90;;;23.50;69.10;;;;;;5084187;28;20591;-37
2021/09/02 11:43:49;;;;;;;2.13;1.92;;;23.40;69.00;;;;;;5084239;28;20285;-36
2021/09/02 11:46:15;;;;;;;2.25;2.00;;;23.40;69.00;;;;;;5084352;28;20415;-37
2021/09/02 11:48:51;;;;;;;2.13;1.92;;;23.40;69.10;;;;;;5084086;28;20028;-36
2021/09/02 11:51:25;;;;;;;1.80;1.70;;;23.40;69.10;;;;;;5084342;28;20096;-37
2021/09/02 11:54:08;;;;;;;2.08;1.80;;;23.40;69.10;;;;;;5084093;28;20054;-36
2021/09/02 11:56:35;;;;;;;1.90;1.80;;;23.40;69.10;;;;;;5066360;28;20090;-37
2021/09/02 11:59:02;;;;;;;2.20;2.00;;;23.40;69.20;;;;;;5083703;28;20031;-36
2021/09/02 12:01:29;;;;;;;2.47;2.13;;;23.40;69.20;;;;;;5076744;28;20032;-37
2021/09/02 12:03:55;;;;;;;2.17;1.90;;;23.40;69.20;;;;;;5048079;28;20393;-36
2021/09/02 12:06:29;;;;;;;2.37;1.83;;;23.40;69.20;;;;;;5078336;28;20767;-36
2021/09/02 12:09:02;;;;;;;1.98;1.67;;;23.30;69.20;;;;;;5065970;28;21072;-37
2021/09/02 12:11:28;;;;;;;1.67;1.58;;;23.30;69.20;;;;;;5050818;28;20028;-37
2021/09/02 12:13:56;;;;;;;1.70;1.60;;;23.40;69.30;;;;;;5067630;28;20024;-37
2021/09/02 12:16:30;;;;;;;2.05;1.85;;;23.30;69.20;;;;;;5083927;28;20028;-37
2021/09/02 12:19:00;;;;;;;1.90;1.70;;;23.30;69.30;;;;;;5066628;28;20036;-36
2021/09/02 12:21:31;;;;;;;2.10;1.90;;;23.30;69.30;;;;;;5083616;28;20032;-37
2021/09/02 12:24:11;;;;;;;2.63;1.85;;;23.30;69.30;;;;;;5083413;28;20037;-36
2021/09/02 12:26:51;;;;;;;2.05;1.73;;;23.30;69.20;;;;;;5083446;28;20051;-36
2021/09/02 12:29:22;;;;;;;3.40;1.80;;;23.30;69.20;;;;;;5083083;28;20582;-35
2021/09/02 12:31:51;;;;;;;2.03;1.83;;;23.30;69.20;;;;;;5066198;28;20032;-37
2021/09/02 12:34:28;;;;;;;1.88;1.70;;;23.30;69.20;;;;;;5083426;28;20040;-37
2021/09/02 12:37:02;;;;;;;1.70;1.60;;;23.30;69.30;;;;;;5083149;28;20063;-36
2021/09/02 12:39:30;;;;;;;3.50;2.00;;;23.30;69.30;;;;;;5083054;28;20024;-36
2021/09/02 12:41:57;;;;;;;1.60;1.50;;;23.30;69.30;;;;;;5083005;28;20036;-36
2021/09/02 12:44:25;;;;;;;4.03;1.73;;;23.30;69.20;;;;;;5082915;28;20036;-37
2021/09/02 12:46:57;;;;;;;1.70;1.50;;;23.30;68.60;;;;;;5083206;28;20106;-37
2021/09/02 12:49:24;;;;;;;1.92;1.73;;;23.30;69.20;;;;;;5083065;28;20025;-36